sensor_id;sensor_type;location;lat;lon;timestamp;pressure;altitude;pressure_sealevel;temperature;humidity
14790;BME280;7486;51.010;10.366;2022-12-28T00:02:13;98896.59;;;0.65;76.75
14790;BME280;7486;51.010;10.366;2022-12-28T00:04:39;98888.06;;;0.83;76.46
14790;BME280;7486;51.010;10.366;2022-12-28T00:07:06;98886.50;;;0.71;76.05
14790;BME280;7486;51.010;10.366;2022-12-28T00:09:33;98863.72;;;0.52;77.00
14790;BME280;7486;51.010;10.366;2022-12-28T00:12:00;98862.31;;;0.48;77.25
14790;BME280;7486;51.010;10.366;2022-12-28T00:14:26;98871.75;;;0.60;76.60
14790;BME280;7486;51.010;10.366;2022-12-28T00:16:53;98872.69;;;0.59;77.10
14790;BME280;7486;51.010;10.366;2022-12-28T00:19:21;98787.31;;;0.31;76.98
14790;BME280;7486;51.010;10.366;2022-12-28T00:21:47;98849.78;;;0.84;75.55
14790;BME280;7486;51.010;10.366;2022-12-28T00:24:19;98836.13;;;0.71;75.85
14790;BME280;7486;51.010;10.366;2022-12-28T00:26:46;98846.50;;;0.61;76.99
14790;BME280;7486;51.010;10.366;2022-12-28T00:29:13;98836.19;;;0.39;77.60
14790;BME280;7486;51.010;10.366;2022-12-28T00:31:40;98755.41;;;0.18;76.48
14790;BME280;7486;51.010;10.366;2022-12-28T00:34:07;98832.94;;;0.46;77.80
14790;BME280;7486;51.010;10.366;2022-12-28T00:36:34;98816.22;;;0.49;77.58
14790;BME280;7486;51.010;10.366;2022-12-28T00:39:21;98814.59;;;0.48;78.08
14790;BME280;7486;51.010;10.366;2022-12-28T00:41:47;98811.84;;;0.49;78.37
14790;BME280;7486;51.010;10.366;2022-12-28T00:44:14;98795.69;;;0.55;77.80
14790;BME280;7486;51.010;10.366;2022-12-28T00:46:41;98805.63;;;0.61;77.29
14790;BME280;7486;51.010;10.366;2022-12-28T00:49:07;98803.00;;;0.61;78.18
14790;BME280;7486;51.010;10.366;2022-12-28T00:51:34;98792.41;;;0.53;77.66
14790;BME280;7486;51.010;10.366;2022-12-28T00:54:01;98786.72;;;0.28;78.85
14790;BME280;7486;51.010;10.366;2022-12-28T00:56:28;98782.66;;;0.14;79.38
14790;BME280;7486;51.010;10.366;2022-12-28T00:58:56;98757.75;;;0.21;79.57
14790;BME280;7486;51.010;10.366;2022-12-28T01:01:25;98762.38;;;0.38;78.65
14790;BME280;7486;51.010;10.366;2022-12-28T01:03:55;98757.75;;;0.21;79.23
14790;BME280;7486;51.010;10.366;2022-12-28T01:06:23;98761.00;;;0.34;78.37
14790;BME280;7486;51.010;10.366;2022-12-28T01:08:50;98741.44;;;0.19;78.78
14790;BME280;7486;51.010;10.366;2022-12-28T01:11:20;98751.91;;;0.29;79.33
14790;BME280;7486;51.010;10.366;2022-12-28T01:13:48;98742.63;;;0.36;78.89
14790;BME280;7486;51.010;10.366;2022-12-28T01:18:45;98728.03;;;0.24;78.91
14790;BME280;7486;51.010;10.366;2022-12-28T01:21:17;98713.91;;;0.47;78.07
14790;BME280;7486;51.010;10.366;2022-12-28T01:23:46;98710.09;;;0.51;77.69
14790;BME280;7486;51.010;10.366;2022-12-28T01:26:13;98715.16;;;0.52;77.46
14790;BME280;7486;51.010;10.366;2022-12-28T01:28:40;98688.44;;;0.60;77.01
14790;BME280;7486;51.010;10.366;2022-12-28T01:31:10;98711.63;;;0.63;76.63
14790;BME280;7486;51.010;10.366;2022-12-28T01:33:37;98687.53;;;0.40;77.87
14790;BME280;7486;51.010;10.366;2022-12-28T01:36:10;98694.75;;;0.57;77.17
14790;BME280;7486;51.010;10.366;2022-12-28T01:38:37;98693.25;;;0.34;77.59
14790;BME280;7486;51.010;10.366;2022-12-28T01:41:09;98638.22;;;-0.03;78.58
14790;BME280;7486;51.010;10.366;2022-12-28T01:43:40;98687.16;;;0.24;78.93
14790;BME280;7486;51.010;10.366;2022-12-28T01:46:17;98674.25;;;0.13;78.83
14790;BME280;7486;51.010;10.366;2022-12-28T01:51:29;98687.91;;;0.05;80.24
14790;BME280;7486;51.010;10.366;2022-12-28T01:53:57;98681.84;;;0.05;80.13
14790;BME280;7486;51.010;10.366;2022-12-28T01:56:25;98680.13;;;0.15;80.32
14790;BME280;7486;51.010;10.366;2022-12-28T01:58:54;98665.34;;;0.16;79.95
14790;BME280;7486;51.010;10.366;2022-12-28T02:01:21;98667.09;;;0.15;79.81
14790;BME280;7486;51.010;10.366;2022-12-28T02:03:48;98661.22;;;0.13;80.01
14790;BME280;7486;51.010;10.366;2022-12-28T02:06:17;98655.28;;;0.11;80.16
14790;BME280;7486;51.010;10.366;2022-12-28T02:08:57;98639.63;;;0.01;80.81
14790;BME280;7486;51.010;10.366;2022-12-28T02:11:28;98642.53;;;0.08;80.53
14790;BME280;7486;51.010;10.366;2022-12-28T02:13:56;98614.94;;;-0.04;80.46
14790;BME280;7486;51.010;10.366;2022-12-28T02:16:24;98630.97;;;0.01;80.90
14790;BME280;7486;51.010;10.366;2022-12-28T02:18:51;98615.91;;;0.04;80.21
14790;BME280;7486;51.010;10.366;2022-12-28T02:24:49;98615.53;;;0.09;80.59
14790;BME280;7486;51.010;10.366;2022-12-28T02:30:08;98611.16;;;0.09;80.21
14790;BME280;7486;51.010;10.366;2022-12-28T02:37:58;98556.25;;;-0.08;80.36
14790;BME280;7486;51.010;10.366;2022-12-28T02:40:42;98400.31;;;-1.12;81.68
14790;BME280;7486;51.010;10.366;2022-12-28T02:43:11;98586.59;;;0.02;81.41
14790;BME280;7486;51.010;10.366;2022-12-28T02:45:39;98585.94;;;0.10;81.63
14790;BME280;7486;51.010;10.366;2022-12-28T02:48:07;98573.41;;;0.04;81.91
14790;BME280;7486;51.010;10.366;2022-12-28T02:50:58;98579.06;;;0.09;81.67
14790;BME280;7486;51.010;10.366;2022-12-28T02:59:11;98561.56;;;0.21;81.44
14790;BME280;7486;51.010;10.366;2022-12-28T03:13:05;98515.97;;;-0.04;81.65
14790;BME280;7486;51.010;10.366;2022-12-28T03:15:36;98533.88;;;0.20;81.25
14790;BME280;7486;51.010;10.366;2022-12-28T03:18:09;98531.38;;;0.18;81.10
14790;BME280;7486;51.010;10.366;2022-12-28T03:20:37;98520.28;;;0.16;80.60
14790;BME280;7486;51.010;10.366;2022-12-28T03:23:06;98469.78;;;-0.12;81.37
14790;BME280;7486;51.010;10.366;2022-12-28T03:25:37;98504.03;;;0.33;80.58
14790;BME280;7486;51.010;10.366;2022-12-28T03:28:06;98512.53;;;0.45;80.26
14790;BME280;7486;51.010;10.366;2022-12-28T03:30:38;98499.47;;;0.35;79.88
14790;BME280;7486;51.010;10.366;2022-12-28T03:33:09;98512.94;;;0.40;79.43
14790;BME280;7486;51.010;10.366;2022-12-28T03:35:45;98511.03;;;0.42;80.11
14790;BME280;7486;51.010;10.366;2022-12-28T03:38:20;98498.81;;;0.33;80.22
14790;BME280;7486;51.010;10.366;2022-12-28T03:40:53;98494.00;;;0.38;79.74
14790;BME280;7486;51.010;10.366;2022-12-28T03:43:24;98520.38;;;0.54;79.75
14790;BME280;7486;51.010;10.366;2022-12-28T03:45:56;98494.16;;;0.66;78.82
14790;BME280;7486;51.010;10.366;2022-12-28T03:48:30;98519.44;;;0.75;79.42
14790;BME280;7486;51.010;10.366;2022-12-28T03:50:58;98512.00;;;0.80;78.74
14790;BME280;7486;51.010;10.366;2022-12-28T03:53:33;98473.03;;;0.40;79.37
14790;BME280;7486;51.010;10.366;2022-12-28T03:56:11;98513.50;;;0.73;79.35
14790;BME280;7486;51.010;10.366;2022-12-28T03:58:39;98514.91;;;0.57;79.82
14790;BME280;7486;51.010;10.366;2022-12-28T04:01:07;98510.63;;;0.66;79.42
14790;BME280;7486;51.010;10.366;2022-12-28T04:03:37;98498.31;;;0.68;79.40
14790;BME280;7486;51.010;10.366;2022-12-28T04:06:04;98488.97;;;0.85;79.65
14790;BME280;7486;51.010;10.366;2022-12-28T04:08:33;98473.47;;;0.64;78.84
14790;BME280;7486;51.010;10.366;2022-12-28T04:11:01;98500.75;;;0.60;80.11
14790;BME280;7486;51.010;10.366;2022-12-28T04:13:31;98495.00;;;0.66;80.23
14790;BME280;7486;51.010;10.366;2022-12-28T04:16:09;98472.06;;;0.79;79.24
14790;BME280;7486;51.010;10.366;2022-12-28T04:18:38;98468.78;;;0.48;80.29
14790;BME280;7486;51.010;10.366;2022-12-28T04:21:05;98479.63;;;0.44;81.02
14790;BME280;7486;51.010;10.366;2022-12-28T04:23:32;98471.69;;;0.65;81.04
14790;BME280;7486;51.010;10.366;2022-12-28T04:26:16;98464.00;;;0.53;81.58
14790;BME280;7486;51.010;10.366;2022-12-28T04:28:44;98460.84;;;0.59;80.78
14790;BME280;7486;51.010;10.366;2022-12-28T04:31:21;98462.59;;;0.69;80.89
14790;BME280;7486;51.010;10.366;2022-12-28T04:34:02;98453.03;;;0.79;80.67
14790;BME280;7486;51.010;10.366;2022-12-28T04:36:32;98437.53;;;0.58;81.44
14790;BME280;7486;51.010;10.366;2022-12-28T04:39:00;98447.81;;;0.79;80.74
14790;BME280;7486;51.010;10.366;2022-12-28T04:41:27;98442.31;;;0.82;80.53
14790;BME280;7486;51.010;10.366;2022-12-28T04:43:54;98443.97;;;1.02;80.26
14790;BME280;7486;51.010;10.366;2022-12-28T04:46:21;98432.31;;;0.87;80.17
14790;BME280;7486;51.010;10.366;2022-12-28T04:48:48;98436.94;;;0.93;80.24
14790;BME280;7486;51.010;10.366;2022-12-28T04:51:20;98431.88;;;0.72;81.47
14790;BME280;7486;51.010;10.366;2022-12-28T04:53:47;98423.78;;;0.66;82.28
14790;BME280;7486;51.010;10.366;2022-12-28T04:56:15;98423.91;;;0.74;81.54
14790;BME280;7486;51.010;10.366;2022-12-28T04:58:42;98424.06;;;0.82;82.15
14790;BME280;7486;51.010;10.366;2022-12-28T05:01:11;98409.78;;;0.95;81.19
14790;BME280;7486;51.010;10.366;2022-12-28T05:03:40;98403.16;;;1.10;81.14
14790;BME280;7486;51.010;10.366;2022-12-28T05:06:10;98397.22;;;1.18;80.68
14790;BME280;7486;51.010;10.366;2022-12-28T05:08:38;98365.31;;;0.97;80.39
14790;BME280;7486;51.010;10.366;2022-12-28T05:11:07;98381.16;;;1.13;81.06
14790;BME280;7486;51.010;10.366;2022-12-28T05:13:34;98365.50;;;1.13;81.42
14790;BME280;7486;51.010;10.366;2022-12-28T05:16:07;98378.22;;;1.35;80.71
14790;BME280;7486;51.010;10.366;2022-12-28T05:18:35;98305.66;;;0.65;82.10
14790;BME280;7486;51.010;10.366;2022-12-28T05:21:17;98364.88;;;0.82;83.81
14790;BME280;7486;51.010;10.366;2022-12-28T05:23:44;98366.81;;;0.90;83.75
14790;BME280;7486;51.010;10.366;2022-12-28T05:26:14;98355.13;;;1.03;84.17
14790;BME280;7486;51.010;10.366;2022-12-28T05:28:41;98346.25;;;0.77;84.82
14790;BME280;7486;51.010;10.366;2022-12-28T05:31:13;98282.81;;;0.40;84.71
14790;BME280;7486;51.010;10.366;2022-12-28T05:33:41;98325.41;;;0.77;84.94
14790;BME280;7486;51.010;10.366;2022-12-28T05:36:13;98325.94;;;0.81;84.35
14790;BME280;7486;51.010;10.366;2022-12-28T05:38:41;98323.31;;;0.81;83.94
14790;BME280;7486;51.010;10.366;2022-12-28T05:41:11;98307.38;;;0.93;83.72
14790;BME280;7486;51.010;10.366;2022-12-28T05:43:39;98331.50;;;1.05;83.49
14790;BME280;7486;51.010;10.366;2022-12-28T05:46:10;98328.03;;;1.14;83.32
14790;BME280;7486;51.010;10.366;2022-12-28T05:48:39;98326.84;;;1.08;83.64
14790;BME280;7486;51.010;10.366;2022-12-28T05:51:08;98328.19;;;1.13;83.26
14790;BME280;7486;51.010;10.366;2022-12-28T05:53:36;98327.28;;;1.31;82.73
14790;BME280;7486;51.010;10.366;2022-12-28T05:56:05;98324.13;;;1.28;82.42
14790;BME280;7486;51.010;10.366;2022-12-28T05:58:40;98320.91;;;1.06;83.77
14790;BME280;7486;51.010;10.366;2022-12-28T06:03:34;98317.34;;;1.07;83.87
14790;BME280;7486;51.010;10.366;2022-12-28T06:06:05;98299.88;;;1.18;84.04
14790;BME280;7486;51.010;10.366;2022-12-28T06:08:32;98309.41;;;1.36;83.05
14790;BME280;7486;51.010;10.366;2022-12-28T06:11:04;98312.06;;;1.27;83.28
14790;BME280;7486;51.010;10.366;2022-12-28T06:13:31;98323.50;;;1.16;84.25
14790;BME280;7486;51.010;10.366;2022-12-28T06:16:04;98306.56;;;1.30;84.25
14790;BME280;7486;51.010;10.366;2022-12-28T06:18:30;98301.13;;;1.41;83.55
14790;BME280;7486;51.010;10.366;2022-12-28T06:21:09;98314.66;;;1.54;83.58
14790;BME280;7486;51.010;10.366;2022-12-28T06:23:37;98309.44;;;1.54;83.37
14790;BME280;7486;51.010;10.366;2022-12-28T06:26:05;98311.06;;;1.55;83.55
14790;BME280;7486;51.010;10.366;2022-12-28T06:28:35;98304.56;;;1.41;84.55
14790;BME280;7486;51.010;10.366;2022-12-28T06:31:10;98299.53;;;1.57;83.78
14790;BME280;7486;51.010;10.366;2022-12-28T06:33:39;98300.94;;;1.70;83.09
14790;BME280;7486;51.010;10.366;2022-12-28T06:36:20;98253.13;;;1.51;82.85
14790;BME280;7486;51.010;10.366;2022-12-28T06:38:48;98288.34;;;1.83;82.86
14790;BME280;7486;51.010;10.366;2022-12-28T06:41:17;98290.66;;;1.68;83.30
14790;BME280;7486;51.010;10.366;2022-12-28T06:43:45;98287.69;;;1.81;82.93
14790;BME280;7486;51.010;10.366;2022-12-28T06:46:13;98283.44;;;1.80;83.00
14790;BME280;7486;51.010;10.366;2022-12-28T06:48:40;98219.91;;;1.44;82.97
14790;BME280;7486;51.010;10.366;2022-12-28T06:51:11;98274.09;;;1.77;83.25
14790;BME280;7486;51.010;10.366;2022-12-28T06:53:39;98261.88;;;1.78;83.28
14790;BME280;7486;51.010;10.366;2022-12-28T06:56:19;98258.78;;;1.64;83.99
14790;BME280;7486;51.010;10.366;2022-12-28T06:58:47;98267.22;;;1.76;84.39
14790;BME280;7486;51.010;10.366;2022-12-28T07:01:29;98253.44;;;1.84;82.88
14790;BME280;7486;51.010;10.366;2022-12-28T07:03:57;98252.75;;;1.99;83.00
14790;BME280;7486;51.010;10.366;2022-12-28T07:06:26;98262.75;;;2.04;82.86
14790;BME280;7486;51.010;10.366;2022-12-28T07:09:02;98263.91;;;2.09;82.49
14790;BME280;7486;51.010;10.366;2022-12-28T07:11:29;98257.28;;;2.15;82.38
14790;BME280;7486;51.010;10.366;2022-12-28T07:13:57;98256.69;;;2.21;82.41
14790;BME280;7486;51.010;10.366;2022-12-28T07:16:29;98266.50;;;2.27;81.50
14790;BME280;7486;51.010;10.366;2022-12-28T07:18:57;98260.69;;;2.33;81.88
14790;BME280;7486;51.010;10.366;2022-12-28T07:21:26;98256.66;;;2.39;81.42
14790;BME280;7486;51.010;10.366;2022-12-28T07:23:54;98249.75;;;2.12;82.30
14790;BME280;7486;51.010;10.366;2022-12-28T07:26:24;98246.75;;;2.25;82.50
14790;BME280;7486;51.010;10.366;2022-12-28T07:28:53;98244.13;;;2.25;81.63
14790;BME280;7486;51.010;10.366;2022-12-28T07:31:22;98223.19;;;1.99;82.09
14790;BME280;7486;51.010;10.366;2022-12-28T07:33:51;98263.91;;;2.27;81.72
14790;BME280;7486;51.010;10.366;2022-12-28T07:36:19;98242.81;;;2.03;82.69
14790;BME280;7486;51.010;10.366;2022-12-28T07:38:47;98224.59;;;2.11;81.70
14790;BME280;7486;51.010;10.366;2022-12-28T07:41:16;98253.47;;;2.53;80.95
14790;BME280;7486;51.010;10.366;2022-12-28T07:43:43;98248.59;;;2.32;81.37
14790;BME280;7486;51.010;10.366;2022-12-28T07:46:18;98250.13;;;2.17;82.36
14790;BME280;7486;51.010;10.366;2022-12-28T07:48:46;98243.63;;;2.21;82.78
14790;BME280;7486;51.010;10.366;2022-12-28T07:51:22;98250.06;;;2.35;81.86
14790;BME280;7486;51.010;10.366;2022-12-28T07:53:50;98225.56;;;2.10;82.63
14790;BME280;7486;51.010;10.366;2022-12-28T07:56:19;98256.97;;;2.18;83.62
14790;BME280;7486;51.010;10.366;2022-12-28T07:58:51;98247.88;;;2.22;82.92
14790;BME280;7486;51.010;10.366;2022-12-28T08:01:20;98246.41;;;2.53;82.73
14790;BME280;7486;51.010;10.366;2022-12-28T08:03:57;98214.63;;;2.32;81.75
14790;BME280;7486;51.010;10.366;2022-12-28T08:06:29;98241.16;;;2.45;81.60
14790;BME280;7486;51.010;10.366;2022-12-28T08:08:59;98245.50;;;2.62;81.78
14790;BME280;7486;51.010;10.366;2022-12-28T08:11:35;98242.91;;;2.62;81.04
14790;BME280;7486;51.010;10.366;2022-12-28T08:14:03;98253.22;;;2.38;82.21
14790;BME280;7486;51.010;10.366;2022-12-28T08:16:33;98243.38;;;2.32;82.51
14790;BME280;7486;51.010;10.366;2022-12-28T08:19:01;98243.78;;;2.45;82.09
14790;BME280;7486;51.010;10.366;2022-12-28T08:21:30;98246.69;;;2.42;81.61
14790;BME280;7486;51.010;10.366;2022-12-28T08:23:57;98195.13;;;2.01;82.18
14790;BME280;7486;51.010;10.366;2022-12-28T08:26:33;98244.34;;;2.31;82.62
14790;BME280;7486;51.010;10.366;2022-12-28T08:29:04;98252.06;;;2.15;83.67
14790;BME280;7486;51.010;10.366;2022-12-28T08:31:33;98243.94;;;2.00;84.05
14790;BME280;7486;51.010;10.366;2022-12-28T08:34:01;98239.63;;;1.91;83.83
14790;BME280;7486;51.010;10.366;2022-12-28T08:36:29;98219.41;;;1.76;84.92
14790;BME280;7486;51.010;10.366;2022-12-28T08:38:56;98235.59;;;1.97;83.85
14790;BME280;7486;51.010;10.366;2022-12-28T08:41:25;98244.34;;;1.88;84.43
14790;BME280;7486;51.010;10.366;2022-12-28T08:43:54;98190.84;;;1.56;84.60
14790;BME280;7486;51.010;10.366;2022-12-28T08:46:25;98240.72;;;1.89;84.47
14790;BME280;7486;51.010;10.366;2022-12-28T08:48:54;98244.16;;;1.89;84.90
14790;BME280;7486;51.010;10.366;2022-12-28T08:53:49;98241.84;;;2.04;83.77
14790;BME280;7486;51.010;10.366;2022-12-28T08:58:45;98239.53;;;2.01;83.78
14790;BME280;7486;51.010;10.366;2022-12-28T09:01:25;98243.19;;;2.08;83.59
14790;BME280;7486;51.010;10.366;2022-12-28T09:03:55;98240.03;;;2.22;83.06
14790;BME280;7486;51.010;10.366;2022-12-28T09:06:30;98248.31;;;2.18;82.74
14790;BME280;7486;51.010;10.366;2022-12-28T09:08:58;98239.34;;;2.20;83.50
14790;BME280;7486;51.010;10.366;2022-12-28T09:11:34;98255.94;;;2.11;83.85
14790;BME280;7486;51.010;10.366;2022-12-28T09:14:02;98225.38;;;1.86;83.88
14790;BME280;7486;51.010;10.366;2022-12-28T09:16:29;98251.34;;;2.05;83.91
14790;BME280;7486;51.010;10.366;2022-12-28T09:18:57;98254.13;;;2.29;84.32
14790;BME280;7486;51.010;10.366;2022-12-28T09:21:27;98259.16;;;2.48;82.93
14790;BME280;7486;51.010;10.366;2022-12-28T09:23:54;98253.28;;;2.46;83.30
14790;BME280;7486;51.010;10.366;2022-12-28T09:26:23;98248.50;;;2.42;83.60
14790;BME280;7486;51.010;10.366;2022-12-28T09:28:55;98262.72;;;2.47;82.98
14790;BME280;7486;51.010;10.366;2022-12-28T09:31:24;98265.53;;;2.46;83.15
14790;BME280;7486;51.010;10.366;2022-12-28T09:33:51;98263.34;;;2.41;83.29
14790;BME280;7486;51.010;10.366;2022-12-28T09:36:43;98259.91;;;2.41;83.20
14790;BME280;7486;51.010;10.366;2022-12-28T09:39:17;98264.16;;;2.68;81.90
14790;BME280;7486;51.010;10.366;2022-12-28T09:41:56;98246.63;;;2.86;81.14
14790;BME280;7486;51.010;10.366;2022-12-28T09:44:50;98246.97;;;2.91;79.75
14790;BME280;7486;51.010;10.366;2022-12-28T09:47:57;98241.38;;;2.86;80.16
14790;BME280;7486;51.010;10.366;2022-12-28T09:50:32;98240.72;;;2.84;79.95
14790;BME280;7486;51.010;10.366;2022-12-28T09:55:34;98228.63;;;2.83;81.32
14790;BME280;7486;51.010;10.366;2022-12-28T09:58:02;98225.53;;;2.87;81.55
14790;BME280;7486;51.010;10.366;2022-12-28T10:00:40;98200.66;;;2.83;80.30
14790;BME280;7486;51.010;10.366;2022-12-28T10:03:22;98219.25;;;3.14;78.75
14790;BME280;7486;51.010;10.366;2022-12-28T10:05:51;98222.19;;;3.19;79.36
14790;BME280;7486;51.010;10.366;2022-12-28T10:08:20;98216.94;;;3.03;79.88
14790;BME280;7486;51.010;10.366;2022-12-28T10:10:49;98215.91;;;2.96;80.23
14790;BME280;7486;51.010;10.366;2022-12-28T10:13:22;98205.06;;;2.83;80.73
14790;BME280;7486;51.010;10.366;2022-12-28T10:16:18;98217.19;;;2.92;80.39
14790;BME280;7486;51.010;10.366;2022-12-28T10:18:46;98198.75;;;3.01;79.78
14790;BME280;7486;51.010;10.366;2022-12-28T10:21:16;98211.22;;;3.07;79.13
14790;BME280;7486;51.010;10.366;2022-12-28T10:23:44;98206.47;;;3.03;79.29
14790;BME280;7486;51.010;10.366;2022-12-28T10:26:33;98212.19;;;3.06;79.43
14790;BME280;7486;51.010;10.366;2022-12-28T10:29:00;98158.50;;;2.86;78.82
14790;BME280;7486;51.010;10.366;2022-12-28T10:31:35;98206.81;;;3.16;78.55
14790;BME280;7486;51.010;10.366;2022-12-28T10:34:14;98173.38;;;2.86;79.25
14790;BME280;7486;51.010;10.366;2022-12-28T10:36:43;98201.25;;;3.11;78.54
14790;BME280;7486;51.010;10.366;2022-12-28T10:39:16;98194.72;;;3.15;78.52
14790;BME280;7486;51.010;10.366;2022-12-28T10:41:46;98183.88;;;2.94;79.02
14790;BME280;7486;51.010;10.366;2022-12-28T10:44:52;98147.84;;;2.80;78.91
14790;BME280;7486;51.010;10.366;2022-12-28T10:47:17;98192.72;;;3.01;79.50
14790;BME280;7486;51.010;10.366;2022-12-28T10:49:50;98189.00;;;3.20;79.34
14790;BME280;7486;51.010;10.366;2022-12-28T10:52:38;98185.53;;;3.03;79.27
14790;BME280;7486;51.010;10.366;2022-12-28T10:55:25;98171.94;;;2.99;79.98
14790;BME280;7486;51.010;10.366;2022-12-28T10:57:52;98163.81;;;3.10;79.31
14790;BME280;7486;51.010;10.366;2022-12-28T11:00:39;98171.56;;;3.28;78.86
14790;BME280;7486;51.010;10.366;2022-12-28T11:03:17;98169.88;;;3.27;78.21
14790;BME280;7486;51.010;10.366;2022-12-28T11:05:45;98135.91;;;2.85;79.02
14790;BME280;7486;51.010;10.366;2022-12-28T11:08:22;98168.34;;;3.08;79.79
14790;BME280;7486;51.010;10.366;2022-12-28T11:10:55;98138.53;;;2.85;79.86
14790;BME280;7486;51.010;10.366;2022-12-28T11:13:22;98153.81;;;2.98;80.58
14790;BME280;7486;51.010;10.366;2022-12-28T11:15:49;98146.94;;;3.13;80.05
14790;BME280;7486;51.010;10.366;2022-12-28T11:18:17;98145.63;;;3.01;80.30
14790;BME280;7486;51.010;10.366;2022-12-28T11:20:47;98041.53;;;2.46;80.84
14790;BME280;7486;51.010;10.366;2022-12-28T11:23:19;98134.91;;;3.28;80.84
14790;BME280;7486;51.010;10.366;2022-12-28T11:25:48;98083.19;;;3.14;80.14
14790;BME280;7486;51.010;10.366;2022-12-28T11:28:17;98110.06;;;3.48;78.84
14790;BME280;7486;51.010;10.366;2022-12-28T11:30:49;98086.81;;;3.45;77.83
14790;BME280;7486;51.010;10.366;2022-12-28T11:33:41;98127.06;;;3.44;78.21
14790;BME280;7486;51.010;10.366;2022-12-28T11:36:14;98123.31;;;3.55;77.81
14790;BME280;7486;51.010;10.366;2022-12-28T11:38:44;98116.94;;;3.41;77.51
14790;BME280;7486;51.010;10.366;2022-12-28T11:44:04;98080.59;;;3.46;77.64
14790;BME280;7486;51.010;10.366;2022-12-28T11:46:36;98105.97;;;3.46;78.42
14790;BME280;7486;51.010;10.366;2022-12-28T11:49:34;98097.28;;;3.45;77.62
14790;BME280;7486;51.010;10.366;2022-12-28T11:54:57;98082.88;;;3.33;78.93
14790;BME280;7486;51.010;10.366;2022-12-28T11:57:38;98091.66;;;3.16;79.66
14790;BME280;7486;51.010;10.366;2022-12-28T12:02:54;98078.44;;;3.18;78.89
14790;BME280;7486;51.010;10.366;2022-12-28T12:05:50;98064.84;;;3.14;79.54
14790;BME280;7486;51.010;10.366;2022-12-28T12:13:52;98074.03;;;3.18;79.87
14790;BME280;7486;51.010;10.366;2022-12-28T12:18:51;98059.94;;;3.19;79.80
14790;BME280;7486;51.010;10.366;2022-12-28T12:21:29;98067.16;;;3.25;79.84
14790;BME280;7486;51.010;10.366;2022-12-28T12:24:02;98066.97;;;3.27;78.53
14790;BME280;7486;51.010;10.366;2022-12-28T12:26:49;98069.09;;;3.23;80.03
14790;BME280;7486;51.010;10.366;2022-12-28T12:29:48;98078.31;;;3.51;79.78
14790;BME280;7486;51.010;10.366;2022-12-28T12:34:54;98075.03;;;3.65;79.25
14790;BME280;7486;51.010;10.366;2022-12-28T12:37:54;98062.22;;;3.71;77.83
14790;BME280;7486;51.010;10.366;2022-12-28T12:56:38;98047.44;;;4.02;76.61
14790;BME280;7486;51.010;10.366;2022-12-28T13:04:49;98035.06;;;3.63;77.68
14790;BME280;7486;51.010;10.366;2022-12-28T13:07:19;98041.06;;;3.88;77.53
14790;BME280;7486;51.010;10.366;2022-12-28T13:09:48;98038.25;;;3.98;76.77
14790;BME280;7486;51.010;10.366;2022-12-28T13:12:16;98042.38;;;4.00;77.60
14790;BME280;7486;51.010;10.366;2022-12-28T13:14:46;98045.75;;;4.17;76.80
14790;BME280;7486;51.010;10.366;2022-12-28T13:17:20;98044.78;;;4.10;76.81
14790;BME280;7486;51.010;10.366;2022-12-28T13:19:48;98039.56;;;4.02;76.82
14790;BME280;7486;51.010;10.366;2022-12-28T13:22:29;98039.25;;;3.97;77.22
14790;BME280;7486;51.010;10.366;2022-12-28T13:25:00;98027.50;;;3.85;77.95
14790;BME280;7486;51.010;10.366;2022-12-28T13:27:33;98030.38;;;4.06;77.44
14790;BME280;7486;51.010;10.366;2022-12-28T13:30:01;98025.13;;;4.14;76.24
14790;BME280;7486;51.010;10.366;2022-12-28T13:32:31;98023.91;;;4.25;76.53
14790;BME280;7486;51.010;10.366;2022-12-28T13:35:37;97976.50;;;4.03;75.44
14790;BME280;7486;51.010;10.366;2022-12-28T13:38:11;98008.50;;;4.30;75.48
14790;BME280;7486;51.010;10.366;2022-12-28T13:40:39;98011.47;;;4.27;75.17
14790;BME280;7486;51.010;10.366;2022-12-28T13:46:01;98012.69;;;4.39;74.72
14790;BME280;7486;51.010;10.366;2022-12-28T13:48:31;98016.47;;;4.44;73.91
14790;BME280;7486;51.010;10.366;2022-12-28T13:50:57;98017.78;;;4.40;74.12
14790;BME280;7486;51.010;10.366;2022-12-28T13:53:26;98014.78;;;4.51;74.10
14790;BME280;7486;51.010;10.366;2022-12-28T13:55:57;98017.16;;;4.38;74.51
14790;BME280;7486;51.010;10.366;2022-12-28T14:01:02;98021.25;;;4.63;72.56
14790;BME280;7486;51.010;10.366;2022-12-28T14:03:30;98018.25;;;4.75;72.99
14790;BME280;7486;51.010;10.366;2022-12-28T14:06:05;98024.09;;;4.85;72.81
14790;BME280;7486;51.010;10.366;2022-12-28T14:08:34;98023.78;;;4.80;72.15
14790;BME280;7486;51.010;10.366;2022-12-28T14:11:03;97979.28;;;4.41;73.12
14790;BME280;7486;51.010;10.366;2022-12-28T14:13:31;98013.00;;;4.75;72.87
14790;BME280;7486;51.010;10.366;2022-12-28T14:16:00;98012.13;;;4.82;72.54
14790;BME280;7486;51.010;10.366;2022-12-28T14:18:28;98008.44;;;4.68;73.29
14790;BME280;7486;51.010;10.366;2022-12-28T14:20:57;98009.09;;;4.71;72.89
14790;BME280;7486;51.010;10.366;2022-12-28T14:23:26;98021.16;;;4.80;72.70
14790;BME280;7486;51.010;10.366;2022-12-28T14:25:55;97998.19;;;4.82;72.09
14790;BME280;7486;51.010;10.366;2022-12-28T14:28:39;98017.19;;;4.84;72.20
14790;BME280;7486;51.010;10.366;2022-12-28T14:31:08;98021.50;;;4.77;72.41
14790;BME280;7486;51.010;10.366;2022-12-28T14:33:51;98015.94;;;4.49;73.27
14790;BME280;7486;51.010;10.366;2022-12-28T14:36:21;98018.41;;;4.42;74.33
14790;BME280;7486;51.010;10.366;2022-12-28T14:38:52;98018.53;;;4.49;73.36
14790;BME280;7486;51.010;10.366;2022-12-28T14:41:44;98023.25;;;4.61;73.44
14790;BME280;7486;51.010;10.366;2022-12-28T14:44:19;98017.94;;;4.69;72.75
14790;BME280;7486;51.010;10.366;2022-12-28T14:46:47;98023.88;;;4.63;73.47
14790;BME280;7486;51.010;10.366;2022-12-28T14:54:52;98008.25;;;4.47;72.93
14790;BME280;7486;51.010;10.366;2022-12-28T14:57:32;98014.00;;;4.43;73.92
14790;BME280;7486;51.010;10.366;2022-12-28T15:00:04;97957.38;;;4.26;72.66
14790;BME280;7486;51.010;10.366;2022-12-28T15:05:00;98018.53;;;4.49;72.51
14790;BME280;7486;51.010;10.366;2022-12-28T15:07:29;98006.94;;;4.43;73.25
14790;BME280;7486;51.010;10.366;2022-12-28T15:09:57;98002.34;;;4.45;73.44
14790;BME280;7486;51.010;10.366;2022-12-28T15:12:23;98007.94;;;4.42;73.66